Terminal Aerodrome Forecast
Issued by NWS Pocatello, ID

Home | Current Version | Previous Version | Text Only | Print | Product List | Glossary On
Versions: 1 2 3 4 5 6 7 8 9 10 11 12 13 14 15 16 17 18 19 20 21
945
FTUS45 KPIH 201120
TAFPIH
TAF
KPIH 201120Z 2012/2112 19008KT P6SM -SHRA SCT025 BKN040
     FM201900 18014G24KT P6SM -SHRA SCT025 BKN040 OVC070
     FM210200 20015G25KT 6SM -SHRA SCT025 OVC040
      TEMPO 2106/2110 4SM -SHRA BR BKN025 OVC035=

USA.gov is the U.S. government's official web portal to all federal, state and local government web resources and services.